Time;durP1;ratioP1;P1;durP2;ratioP2;P2;SDS_P1;SDS_P2;PMS_P1;PMS_P2;Temp;Humidity;BMP_temperature;BMP_pressure;BME280_temperature;BME280_humidity;BME280_pressure;Samples;Min_cycle;Max_cycle;Signal;HPM_P1;HPM_P2
2022/09/22 00:00:37;;;;;;;;;;;;;;;;;;5016764;28;20277;-69
2022/09/22 00:03:03;;;;;;;;;;;;;;;;;;5016432;28;19905;-69
2022/09/22 00:05:29;;;;;;;;;;;;;;;;;;5016091;28;20007;-69
2022/09/22 00:07:54;;;;;;;;;;;;;;;;;;5016050;28;19905;-70
2022/09/22 00:10:20;;;;;;;;;;;;;;;;;;5016286;28;19909;-68
2022/09/22 00:12:46;;;;;;;;;;;;;;;;;;5015955;28;19906;-69
2022/09/22 00:15:12;;;;;;;;;;;;;;;;;;5016117;28;19916;-69
2022/09/22 00:17:38;;;;;;;;;;;;;;;;;;5015891;28;19992;-70
2022/09/22 00:20:04;;;;;;;;;;;;;;;;;;5015813;28;19937;-70
2022/09/22 00:22:30;;;;;;;;;;;;;;;;;;5016052;28;20272;-69
2022/09/22 00:24:56;;;;;;;;;;;;;;;;;;5015723;28;19909;-68
2022/09/22 00:27:23;;;;;;;;;;;;;;;;;;5015989;28;19905;-69
2022/09/22 00:29:50;;;;;;;;;;;;;;;;;;5015684;28;19929;-69
2022/09/22 00:32:17;;;;;;;;;;;;;;;;;;5015521;28;20000;-69
2022/09/22 00:34:43;;;;;;;;;;;;;;;;;;4998479;28;19925;-70
2022/09/22 00:37:09;;;;;;;;;;;;;;;;;;5015762;28;20000;-69
2022/09/22 00:39:34;;;;;;;;;;;;;;;;;;5015464;28;19905;-70
2022/09/22 00:42:00;;;;;;;;;;;;;;;;;;5015684;28;19909;-68
2022/09/22 00:44:26;;;;;;;;;;;;;;;;;;5015323;28;19995;-70
2022/09/22 00:46:52;;;;;;;;;;;;;;;;;;5015315;28;19912;-69
2022/09/22 00:49:18;;;;;;;;;;;;;;;;;;5015534;28;19906;-69
2022/09/22 00:51:44;;;;;;;;;;;;;;;;;;5015243;28;19912;-68
2022/09/22 00:54:10;;;;;;;;;;;;;;;;;;5015424;28;19909;-70
2022/09/22 00:56:36;;;;;;;;;;;;;;;;;;5015174;28;19905;-70
2022/09/22 00:59:02;;;;;;;;;;;;;;;;;;5015122;28;19912;-69
2022/09/22 01:01:28;;;;;;;;;;;;;;;;;;5015403;28;19992;-70
2022/09/22 01:03:55;;;;;;;;;;;;;;;;;;5015294;28;20336;-70
2022/09/22 01:06:21;;;;;;;;;;;;;;;;;;5014998;28;19917;-69
2022/09/22 01:08:46;;;;;;;;;;;;;;;;;;5014884;28;19906;-69
2022/09/22 01:11:13;;;;;;;;;;;;;;;;;;5014891;28;20369;-70
2022/09/22 01:13:39;;;;;;;;;;;;;;;;;;5014771;28;20004;-69
2022/09/22 01:16:04;;;;;;;;;;;;;;;;;;5014829;28;19991;-70
2022/09/22 01:18:30;;;;;;;;;;;;;;;;;;5015299;28;19909;-69
2022/09/22 01:20:56;;;;;;;;;;;;;;;;;;5014724;28;20346;-68
2022/09/22 01:23:24;;;;;;;;;;;;;;;;;;5014966;28;19956;-68
2022/09/22 01:25:49;;;;;;;;;;;;;;;;;;5014622;28;19913;-70
2022/09/22 01:28:15;;;;;;;;;;;;;;;;;;5014917;28;19905;-69
2022/09/22 01:30:41;;;;;;;;;;;;;;;;;;5014584;28;19906;-70
2022/09/22 01:33:07;;;;;;;;;;;;;;;;;;5014488;28;19905;-68
2022/09/22 01:35:33;;;;;;;;;;;;;;;;;;5014810;28;20392;-69
2022/09/22 01:37:59;;;;;;;;;;;;;;;;;;5015000;28;19911;-70
2022/09/22 01:40:26;;;;;;;;;;;;;;;;;;5014671;28;19909;-70
2022/09/22 01:42:52;;;;;;;;;;;;;;;;;;4996686;28;19905;-68
2022/09/22 01:45:18;;;;;;;;;;;;;;;;;;5014339;28;19905;-70
2022/09/22 01:47:46;;;;;;;;;;;;;;;;;;5014576;28;19968;-70
2022/09/22 01:50:12;;;;;;;;;;;;;;;;;;5014564;28;19940;-69
2022/09/22 01:52:37;;;;;;;;;;;;;;;;;;5014753;28;19972;-68
2022/09/22 01:55:03;;;;;;;;;;;;;;;;;;5014107;28;20008;-68
2022/09/22 01:57:29;;;;;;;;;;;;;;;;;;5014167;28;19912;-69
2022/09/22 01:59:55;;;;;;;;;;;;;;;;;;5014132;28;19905;-69
2022/09/22 02:02:21;;;;;;;;;;;;;;;;;;5014377;28;19905;-71
2022/09/22 02:04:47;;;;;;;;;;;;;;;;;;5014104;28;19909;-70
2022/09/22 02:07:14;;;;;;;;;;;;;;;;;;5014345;28;19906;-69
2022/09/22 02:09:40;;;;;;;;;;;;;;;;;;5014001;28;20326;-70
2022/09/22 02:12:06;;;;;;;;;;;;;;;;;;5014525;28;19912;-70
2022/09/22 02:14:32;;;;;;;;;;;;;;;;;;5013877;28;20321;-70
2022/09/22 02:16:57;;;;;;;;;;;;;;;;;;5013932;28;20415;-69
2022/09/22 02:19:23;;;;;;;;;;;;;;;;;;5014253;28;19905;-70
2022/09/22 02:21:49;;;;;;;;;;;;;;;;;;5019397;28;19991;-69
2022/09/22 02:24:15;;;;;;;;;;;;;;;;;;5020920;28;19905;-70
2022/09/22 02:26:41;;;;;;;;;;;;;;;;;;5020371;28;19959;-67
2022/09/22 02:29:07;;;;;;;;;;;;;;;;;;5020371;28;19959;-68
2022/09/22 02:31:33;;;;;;;;;;;;;;;;;;5020571;28;19905;-68
2022/09/22 02:33:59;;;;;;;;;;;;;;;;;;5020090;28;19960;-69
2022/09/22 02:36:25;;;;;;;;;;;;;;;;;;5020798;28;20286;-70
2022/09/22 02:38:51;;;;;;;;;;;;;;;;;;5020553;28;20001;-68
2022/09/22 02:41:16;;;;;;;;;;;;;;;;;;5020232;28;19905;-69
2022/09/22 02:43:42;;;;;;;;;;;;;;;;;;5020237;28;19905;-67
2022/09/22 02:46:08;;;;;;;;;;;;;;;;;;5020485;28;19905;-68
2022/09/22 02:48:34;;;;;;;;;;;;;;;;;;5020173;28;19912;-69
2022/09/22 02:51:00;;;;;;;;;;;;;;;;;;5020536;28;20012;-71
2022/09/22 02:53:26;;;;;;;;;;;;;;;;;;5020182;28;19910;-69
2022/09/22 02:55:52;;;;;;;;;;;;;;;;;;5020090;28;20060;-70
2022/09/22 02:58:18;;;;;;;;;;;;;;;;;;5020391;28;19909;-70
2022/09/22 03:00:44;;;;;;;;;;;;;;;;;;5020117;28;20379;-68
2022/09/22 03:03:10;;;;;;;;;;;;;;;;;;5020353;28;20413;-69
2022/09/22 03:05:36;;;;;;;;;;;;;;;;;;5020121;28;20312;-69
2022/09/22 03:08:02;;;;;;;;;;;;;;;;;;5020056;28;19905;-70
2022/09/22 03:10:29;;;;;;;;;;;;;;;;;;5020187;28;19925;-68
2022/09/22 03:12:56;;;;;;;;;;;;;;;;;;5020483;28;19912;-70
2022/09/22 03:15:22;;;;;;;;;;;;;;;;;;5020157;28;20272;-70
2022/09/22 03:17:48;;;;;;;;;;;;;;;;;;5020252;28;19905;-68
2022/09/22 03:20:14;;;;;;;;;;;;;;;;;;5019957;28;20273;-68
2022/09/22 03:22:40;;;;;;;;;;;;;;;;;;5019920;28;19971;-69
2022/09/22 03:25:06;;;;;;;;;;;;;;;;;;5019873;28;19912;-69
2022/09/22 03:27:33;;;;;;;;;;;;;;;;;;5019841;28;19907;-70
2022/09/22 03:29:59;;;;;;;;;;;;;;;;;;5020440;28;19905;-70
2022/09/22 03:32:24;;;;;;;;;;;;;;;;;;5016977;28;19911;-69
2022/09/22 03:34:50;;;;;;;;;;;;;;;;;;5016467;28;19921;-69
2022/09/22 03:37:16;;;;;;;;;;;;;;;;;;5017459;28;19905;-70
2022/09/22 03:39:42;;;;;;;;;;;;;;;;;;5016645;28;19912;-69
2022/09/22 03:42:08;;;;;;;;;;;;;;;;;;5017123;28;19912;-70
2022/09/22 03:44:34;;;;;;;;;;;;;;;;;;5016556;28;19906;-69
2022/09/22 03:47:00;;;;;;;;;;;;;;;;;;5016779;28;19905;-69
2022/09/22 03:49:26;;;;;;;;;;;;;;;;;;5016698;28;20448;-68
2022/09/22 03:51:52;;;;;;;;;;;;;;;;;;5016901;28;19906;-69
2022/09/22 03:54:18;;;;;;;;;;;;;;;;;;5016317;28;20008;-69
2022/09/22 03:56:44;;;;;;;;;;;;;;;;;;5016302;28;19940;-70
2022/09/22 03:59:10;;;;;;;;;;;;;;;;;;5016288;28;19906;-70
2022/09/22 04:01:36;;;;;;;;;;;;;;;;;;5016234;28;19912;-70
2022/09/22 04:04:02;;;;;;;;;;;;;;;;;;5016463;28;19912;-69
2022/09/22 04:06:29;;;;;;;;;;;;;;;;;;5016141;28;19905;-70
2022/09/22 04:08:55;;;;;;;;;;;;;;;;;;5016462;28;20254;-69
2022/09/22 04:11:23;;;;;;;;;;;;;;;;;;5016033;28;19917;-69
2022/09/22 04:13:49;;;;;;;;;;;;;;;;;;5016216;28;20278;-70
2022/09/22 04:16:14;;;;;;;;;;;;;;;;;;5015920;28;19906;-67
2022/09/22 04:18:40;;;;;;;;;;;;;;;;;;5015873;28;19910;-69
2022/09/22 04:21:06;;;;;;;;;;;;;;;;;;5016388;28;20365;-68
2022/09/22 04:23:32;;;;;;;;;;;;;;;;;;5016087;28;19905;-69
2022/09/22 04:25:58;;;;;;;;;;;;;;;;;;5015751;28;20358;-69
2022/09/22 04:28:24;;;;;;;;;;;;;;;;;;5015719;28;19906;-69
2022/09/22 04:30:50;;;;;;;;;;;;;;;;;;5015868;28;19921;-70
2022/09/22 04:33:16;;;;;;;;;;;;;;;;;;5015626;28;19905;-68
2022/09/22 04:35:42;;;;;;;;;;;;;;;;;;5015943;28;19917;-70
2022/09/22 04:38:09;;;;;;;;;;;;;;;;;;5015503;28;19905;-69
2022/09/22 04:40:35;;;;;;;;;;;;;;;;;;5015745;28;19973;-69
2022/09/22 04:43:01;;;;;;;8.52;2.00;;;;;;;;;;5014856;28;19909;-70
2022/09/22 04:45:27;;;;;;;6.47;2.05;;;;;;;;;;5014905;28;20052;-69
2022/09/22 04:47:53;;;;;;;3.88;2.00;;;;;;;;;;5014892;28;20390;-70
2022/09/22 04:50:20;;;;;;;2.67;1.98;;;;;;;;;;5014885;28;20034;-70
2022/09/22 04:52:47;;;;;;;3.08;2.05;;;;;;;;;;5014836;28;20029;-69
2022/09/22 04:55:14;;;;;;;3.28;2.17;;;;;;;;;;5014951;28;20030;-68
2022/09/22 04:57:40;;;;;;;5.03;1.98;;;;;;;;;;5014777;28;20022;-69
2022/09/22 05:00:07;;;;;;;4.97;2.00;;;;;;;;;;5014723;28;20050;-67
2022/09/22 05:02:34;;;;;;;4.38;1.80;;;;;;;;;;5015204;28;20024;-70
2022/09/22 05:05:00;;;;;;;2.08;1.80;;;;;;;;;;5014883;28;20057;-70
2022/09/22 05:07:26;;;;;;;6.38;2.45;;;;;;;;;;5014841;28;20026;-68
2022/09/22 05:09:52;;;;;;;4.05;1.75;;;;;;;;;;5014491;28;20029;-69
2022/09/22 05:12:20;;;;;;;3.80;2.00;;;;;;;;;;5014459;28;20026;-68
2022/09/22 05:14:46;;;;;;;3.55;2.10;;;;;;;;;;5014347;28;20505;-70
2022/09/22 05:17:12;;;;;;;2.53;2.05;;;;;;;;;;5014711;28;20100;-70
2022/09/22 05:19:38;;;;;;;3.72;2.20;;;;;;;;;;5014332;28;20101;-70
2022/09/22 05:22:04;;;;;;;4.90;2.55;;;;;;;;;;5014286;28;20096;-70
2022/09/22 05:24:31;;;;;;;4.15;2.30;;;;;;;;;;5014277;28;20038;-70
2022/09/22 05:26:57;;;;;;;2.38;1.70;;;;;;;;;;5014510;28;20026;-70
2022/09/22 05:29:23;;;;;;;2.40;1.65;;;;;;;;;;5014178;28;20022;-70
2022/09/22 05:31:50;;;;;;;4.53;2.20;;;;;;;;;;5014316;28;20036;-69
2022/09/22 05:34:16;;;;;;;4.55;2.08;;;;;;;;;;5014074;28;20033;-69
2022/09/22 05:36:42;;;;;;;10.63;2.70;;;;;;;;;;5014930;28;20057;-68
2022/09/22 05:39:08;;;;;;;2.95;1.90;;;;;;;;;;5014291;28;20050;-69
2022/09/22 05:41:34;;;;;;;6.05;1.77;;;;;;;;;;5013966;28;20026;-69
2022/09/22 05:44:00;;;;;;;5.65;1.70;;;;;;;;;;5013942;28;20105;-69
2022/09/22 05:46:26;;;;;;;5.60;3.13;;;;;;;;;;5013947;28;20456;-70
2022/09/22 05:48:52;;;;;;;8.32;3.17;;;;;;;;;;5013859;28;20474;-70
2022/09/22 05:51:18;;;;;;;6.40;2.50;;;;;;;;;;5012601;28;20390;-69
2022/09/22 05:53:44;;;;;;;3.65;2.25;;;;;;;;;;5013992;28;20025;-70
2022/09/22 05:56:10;;;;;;;5.03;2.22;;;;;;;;;;5013368;28;20054;-71
2022/09/22 05:58:36;;;;;;;5.00;2.38;;;;;;;;;;5013715;28;20537;-69
2022/09/22 06:01:03;;;;;;;4.25;2.15;;;;;;;;;;5013699;28;20036;-70
2022/09/22 06:03:29;;;;;;;7.70;2.28;;;;;;;;;;5013712;28;20064;-69
2022/09/22 06:05:55;;;;;;;3.53;2.05;;;;;;;;;;5013894;28;20026;-69
2022/09/22 06:08:21;;;;;;;6.43;2.38;;;;;;;;;;5013618;28;20030;-70
2022/09/22 06:10:51;;;;;;;7.68;2.70;;;;;;;;;;5013542;28;20029;-69
2022/09/22 06:13:17;;;;;;;5.78;2.13;;;;;;;;;;5013589;28;20460;-70
2022/09/22 06:15:47;;;;;;;3.17;1.85;;;;;;;;;;5013463;28;20041;-70
2022/09/22 06:18:16;;;;;;;7.50;2.50;;;;;;;;;;5013537;28;20436;-70
2022/09/22 06:20:42;;;;;;;3.50;2.05;;;;;;;;;;5013478;28;20029;-69
2022/09/22 06:23:08;;;;;;;2.97;2.28;;;;;;;;;;5013463;28;20026;-68
2022/09/22 06:25:34;;;;;;;11.65;2.88;;;;;;;;;;5013714;28;20083;-68
2022/09/22 06:28:03;;;;;;;4.70;2.65;;;;;;;;;;5013412;28;20052;-70
2022/09/22 06:30:30;;;;;;;1.92;1.60;;;;;;;;;;5013433;28;20482;-69
2022/09/22 06:32:56;;;;;;;5.78;2.03;;;;;;;;;;5013297;28;20097;-69
2022/09/22 06:35:23;;;;;;;5.38;1.85;;;;;;;;;;5013143;28;20046;-69
2022/09/22 06:37:58;;;;;;;4.93;1.92;;;;;;;;;;5014105;28;20033;-70
2022/09/22 06:40:25;;;;;;;9.30;2.30;;;;;;;;;;5013330;28;20030;-69
2022/09/22 06:42:56;;;;;;;4.30;2.20;;;;;;;;;;5013890;28;20030;-69
2022/09/22 06:45:22;;;;;;;6.28;3.00;;;;;;;;;;5013897;28;20029;-70
2022/09/22 06:47:48;;;;;;;2.78;1.98;;;;;;;;;;5013221;28;20022;-70
2022/09/22 06:50:16;;;;;;;4.40;2.28;;;;;;;;;;5013240;28;20466;-69
2022/09/22 06:52:42;;;;;;;13.90;3.20;;;;;;;;;;5013188;28;20018;-69
2022/09/22 06:55:09;;;;;;;4.45;2.17;;;;;;;;;;5013349;28;20037;-69
2022/09/22 06:57:35;;;;;;;5.65;2.40;;;;;;;;;;5013429;28;20033;-69
2022/09/22 07:00:02;;;;;;;7.00;2.50;;;;;;;;;;5013123;28;20104;-70
2022/09/22 07:02:29;;;;;;;5.43;2.10;;;;;;;;;;5013412;28;20030;-70
2022/09/22 07:04:57;;;;;;;5.35;2.08;;;;;;;;;;5013327;28;20029;-70
2022/09/22 07:07:25;;;;;;;4.00;2.20;;;;;;;;;;5015393;28;20106;-70
2022/09/22 07:09:51;;;;;;;5.50;2.63;;;;;;;;;;5016371;28;20470;-69
2022/09/22 07:12:18;;;;;;;7.95;2.95;;;;;;;;;;5016158;28;20064;-70
2022/09/22 07:14:48;;;;;;;5.40;2.67;;;;;;;;;;5016245;28;20062;-70
2022/09/22 07:17:15;;;;;;;6.32;2.33;;;;;;;;;;5016433;28;20021;-72
2022/09/22 07:19:41;;;;;;;3.17;2.17;;;;;;;;;;5016267;28;20073;-76
2022/09/22 07:22:07;;;;;;;5.43;2.50;;;;;;;;;;5000269;28;20030;-76
2022/09/22 07:24:33;;;;;;;4.50;2.60;;;;;;;;;;5016525;28;20030;-74
2022/09/22 07:27:03;;;;;;;5.75;2.80;;;;;;;;;;4996880;28;20053;-76
2022/09/22 07:29:29;;;;;;;7.30;2.90;;;;;;;;;;4996891;28;20438;-72
2022/09/22 07:31:57;;;;;;;6.00;3.03;;;;;;;;;;4996689;28;20052;-74
2022/09/22 07:34:23;;;;;;;5.47;2.63;;;;;;;;;;5002813;28;20108;-71
2022/09/22 07:36:50;;;;;;;4.72;3.03;;;;;;;;;;5016028;28;20030;-69
2022/09/22 07:39:16;;;;;;;5.30;2.92;;;;;;;;;;5015607;28;20032;-74
2022/09/22 07:41:42;;;;;;;4.28;2.60;;;;;;;;;;5016169;28;20022;-75
2022/09/22 07:46:54;;;;;;;6.65;3.38;;;;;;;;;;5016125;28;20041;-73
2022/09/22 07:49:21;;;;;;;5.50;3.08;;;;;;;;;;5015568;28;20057;-73
2022/09/22 07:51:48;;;;;;;3.80;2.55;;;;;;;;;;5015635;28;20053;-74
2022/09/22 07:54:14;;;;;;;;;;;;;;;;;;5015859;28;20557;-74
2022/09/22 07:56:40;;;;;;;;;;;;;;;;;;5016351;28;19947;-73
2022/09/22 07:59:08;;;;;;;;;;;;;;;;;;5016166;28;19996;-72
2022/09/22 08:01:34;;;;;;;;;;;;;;;;;;5016216;28;19992;-76
2022/09/22 08:04:00;;;;;;;;;;;;;;;;;;5015906;28;19937;-75
2022/09/22 08:06:26;;;;;;;;;;;;;;;;;;5016608;28;20335;-76
2022/09/22 08:08:54;;;;;;;;;;;;;;;;;;5016079;28;20267;-76
2022/09/22 08:11:20;;;;;;;;;;;;;;;;;;5014740;28;20391;-73
2022/09/22 08:13:45;;;;;;;;;;;;;;;;;;5016511;28;19989;-73
2022/09/22 08:16:11;;;;;;;;;;;;;;;;;;5015864;28;19929;-72
2022/09/22 08:18:38;;;;;;;;;;;;;;;;;;4997705;28;20276;-69
2022/09/22 08:21:04;;;;;;;;;;;;;;;;;;5015207;28;19909;-73
2022/09/22 08:23:30;;;;;;;;;;;;;;;;;;5015353;28;19909;-75
2022/09/22 08:25:56;;;;;;;;;;;;;;;;;;5015338;28;19917;-71
2022/09/22 08:28:22;;;;;;;;;;;;;;;;;;5016023;28;19912;-71
2022/09/22 08:30:47;;;;;;;;;;;;;;;;;;5016157;28;20396;-70
2022/09/22 08:33:13;;;;;;;;;;;;;;;;;;5015336;28;19951;-72
2022/09/22 08:35:40;;;;;;;;;;;;;;;;;;4997518;28;19964;-73
2022/09/22 08:38:06;;;;;;;;;;;;;;;;;;5016621;28;19912;-72
2022/09/22 08:40:32;;;;;;;;;;;;;;;;;;5015054;28;19988;-74
2022/09/22 08:42:58;;;;;;;;;;;;;;;;;;5015456;28;19906;-72
2022/09/22 08:45:24;;;;;;;;;;;;;;;;;;5015176;28;19977;-73
2022/09/22 08:53:22;;;;;;;;;;;;;;;;;;5014309;28;19920;-71
2022/09/22 08:55:48;;;;;;;;;;;;;;;;;;5014785;28;20005;-75
2022/09/22 08:58:14;;;;;;;;;;;;;;;;;;5015464;28;19905;-74
2022/09/22 09:00:40;;;;;;;;;;;;;;;;;;5015422;28;19913;-74
2022/09/22 09:03:06;;;;;;;;;;;;;;;;;;5014723;28;19937;-72
2022/09/22 09:05:31;;;;;;;;;;;;;;;;;;5015279;28;19917;-72
2022/09/22 09:07:58;;;;;;;;;;;;;;;;;;5014261;28;19932;-74
2022/09/22 09:10:25;;;;;;;;;;;;;;;;;;5014892;28;19906;-73
2022/09/22 09:12:51;;;;;;;;;;;;;;;;;;5014942;28;20282;-74
2022/09/22 09:15:17;;;;;;;;;;;;;;;;;;5014306;28;20285;-69
2022/09/22 09:17:44;;;;;;;;;;;;;;;;;;5014851;28;19906;-69
2022/09/22 09:20:09;;;;;;;;;;;;;;;;;;5014406;28;20366;-73
2022/09/22 09:22:39;;;;;;;;;;;;;;;;;;5003816;28;19910;-74
2022/09/22 09:25:05;;;;;;;;;;;;;;;;;;5014729;28;20262;-73
2022/09/22 09:27:31;;;;;;;;;;;;;;;;;;4998739;28;19964;-72
2022/09/22 09:29:57;;;;;;;;;;;;;;;;;;5003504;28;19906;-74
2022/09/22 09:32:23;;;;;;;;;;;;;;;;;;4996368;28;19916;-75
2022/09/22 09:34:49;;;;;;;;;;;;;;;;;;5013644;28;19917;-75
2022/09/22 09:37:15;;;;;;;;;;;;;;;;;;4997310;28;19912;-76
2022/09/22 09:39:41;;;;;;;;;;;;;;;;;;5013766;28;19917;-76
2022/09/22 09:42:07;;;;;;;;;;;;;;;;;;5013837;28;19917;-74
2022/09/22 09:44:34;;;;;;;;;;;;;;;;;;5013433;28;19909;-76
2022/09/22 09:47:00;;;;;;;;;;;;;;;;;;5013937;28;19909;-77
2022/09/22 09:49:26;;;;;;;;;;;;;;;;;;5014524;28;20376;-75
2022/09/22 09:51:52;;;;;;;;;;;;;;;;;;5014046;28;19984;-76
2022/09/22 09:54:19;;;;;;;;;;;;;;;;;;5014152;28;19920;-75
2022/09/22 09:56:45;;;;;;;;;;;;;;;;;;5014318;28;19972;-75
2022/09/22 10:01:56;;;;;;;;;;;;;;;;;;5013702;28;19963;-80
2022/09/22 10:04:22;;;;;;;;;;;;;;;;;;5013556;28;19910;-76
2022/09/22 10:06:48;;;;;;;;;;;;;;;;;;5013301;28;19916;-75
2022/09/22 10:09:14;;;;;;;;;;;;;;;;;;5013574;28;19917;-74
2022/09/22 10:11:40;;;;;;;;;;;;;;;;;;5013304;28;19910;-72
2022/09/22 10:14:06;;;;;;;;;;;;;;;;;;5013986;28;19955;-76
2022/09/22 10:16:34;;;;;;;;;;;;;;;;;;5013724;28;19964;-77
2022/09/22 10:19:00;;;;;;;;;;;;;;;;;;4996370;28;19905;-78
2022/09/22 10:21:27;;;;;;;;;;;;;;;;;;4996344;28;20004;-74
2022/09/22 10:23:53;;;;;;;;;;;;;;;;;;5013240;28;19916;-73
2022/09/22 10:26:18;;;;;;;;;;;;;;;;;;5013384;28;19909;-71
2022/09/22 10:28:49;;;;;;;;;;;;;;;;;;5012802;28;19916;-74
2022/09/22 10:31:15;;;;;;;;;;;;;;;;;;4995153;28;19909;-70
2022/09/22 10:33:41;;;;;;;;;;;;;;;;;;5012614;28;20289;-70
2022/09/22 10:36:08;;;;;;;;;;;;;;;;;;5013187;28;19983;-71
2022/09/22 10:38:34;;;;;;;;;;;;;;;;;;4995820;28;20360;-70
2022/09/22 10:41:00;;;;;;;;;;;;;;;;;;5013494;28;19953;-70
2022/09/22 10:43:26;;;;;;;;;;;;;;;;;;5017349;28;19910;-71
2022/09/22 10:45:52;;;;;;;;;;;;;;;;;;5017461;28;19960;-71
2022/09/22 10:48:18;;;;;;;;;;;;;;;;;;5017605;28;19912;-71
2022/09/22 10:50:44;;;;;;;;;;;;;;;;;;5017606;28;19906;-70
2022/09/22 10:53:10;;;;;;;;;;;;;;;;;;5017537;28;19905;-69
2022/09/22 10:55:36;;;;;;;;;;;;;;;;;;5017965;28;19917;-70
2022/09/22 10:58:02;;;;;;;;;;;;;;;;;;5017740;28;19907;-69
2022/09/22 11:00:28;;;;;;;;;;;;;;;;;;5017389;28;19905;-70
2022/09/22 11:02:54;;;;;;;;;;;;;;;;;;5017374;28;19905;-71
2022/09/22 11:12:15;;;;;;;;;;;;;;;;;;5017895;28;20392;-70
2022/09/22 11:13:35;;;;;;;;;;;;;;;;;;5017245;28;19913;-70
2022/09/22 11:16:01;;;;;;;;;;;;;;;;;;5017106;28;19913;-69
2022/09/22 11:18:27;;;;;;;;;;;;;;;;;;5017049;28;20354;-70
2022/09/22 11:20:52;;;;;;;;;;;;;;;;;;5017037;28;19998;-70
2022/09/22 11:23:20;;;;;;;;;;;;;;;;;;5017528;28;20265;-71
2022/09/22 11:25:45;;;;;;;;;;;;;;;;;;5016969;28;19905;-71
2022/09/22 11:28:11;;;;;;;;;;;;;;;;;;5016893;28;20289;-70
2022/09/22 11:30:37;;;;;;;;;;;;;;;;;;5016855;28;19912;-70
2022/09/22 11:33:03;;;;;;;;;;;;;;;;;;5017006;28;19905;-70
2022/09/22 11:35:29;;;;;;;;;;;;;;;;;;5016499;28;20324;-70
2022/09/22 11:37:55;;;;;;;;;;;;;;;;;;5017258;28;20435;-70
2022/09/22 11:40:21;;;;;;;;;;;;;;;;;;5016932;28;19909;-70
2022/09/22 11:42:47;;;;;;;;;;;;;;;;;;5016960;28;19909;-70
2022/09/22 11:45:13;;;;;;;;;;;;;;;;;;5016633;28;19959;-70
2022/09/22 11:47:40;;;;;;;;;;;;;;;;;;5016812;28;19912;-70
2022/09/22 11:50:07;;;;;;;;;;;;;;;;;;5016517;28;20380;-70
2022/09/22 11:52:33;;;;;;;;;;;;;;;;;;5016113;28;19968;-70
2022/09/22 11:55:00;;;;;;;;;;;;;;;;;;5015885;28;20435;-71
2022/09/22 11:57:27;;;;;;;;;;;;;;;;;;5016633;28;19909;-70
2022/09/22 11:59:53;;;;;;;;;;;;;;;;;;4998468;28;19905;-70
2022/09/22 12:02:19;;;;;;;;;;;;;;;;;;5016312;28;19905;-70
2022/09/22 12:04:44;;;;;;;;;;;;;;;;;;5016490;28;19906;-70
2022/09/22 12:07:12;;;;;;;;;;;;;;;;;;5016471;28;19948;-70
2022/09/22 12:09:38;;;;;;;;;;;;;;;;;;5014891;28;19909;-78
2022/09/22 12:12:04;;;;;;;;;;;;;;;;;;5015745;28;19916;-77
2022/09/22 12:14:31;;;;;;;;;;;;;;;;;;5016268;28;19952;-75
2022/09/22 12:16:57;;;;;;;;;;;;;;;;;;5015993;28;19905;-79
2022/09/22 12:19:23;;;;;;;;;;;;;;;;;;5016005;28;19928;-75
2022/09/22 12:21:49;;;;;;;;;;;;;;;;;;5016462;28;20036;-77
2022/09/22 12:24:15;;;;;;;;;;;;;;;;;;5015915;28;19976;-68
2022/09/22 12:26:41;;;;;;;;;;;;;;;;;;5015657;28;20062;-70
2022/09/22 12:29:07;;;;;;;;;;;;;;;;;;5014994;28;19953;-78
2022/09/22 12:31:33;;;;;;;;;;;;;;;;;;5014711;28;19910;-73
2022/09/22 12:33:59;;;;;;;;;;;;;;;;;;5015654;28;19909;-74
2022/09/22 12:36:25;;;;;;;;;;;;;;;;;;5015235;28;19930;-77
2022/09/22 12:38:51;;;;;;;;;;;;;;;;;;5016016;28;20369;-74
2022/09/22 12:41:17;;;;;;;;;;;;;;;;;;5015876;28;19956;-78
2022/09/22 12:43:44;;;;;;;;;;;;;;;;;;5015014;28;19909;-74
2022/09/22 12:46:10;;;;;;;;;;;;;;;;;;5014686;28;19917;-74
2022/09/22 12:48:36;;;;;;;;;;;;;;;;;;5015426;28;19906;-74
2022/09/22 12:51:02;;;;;;;;;;;;;;;;;;5015640;28;19906;-76
2022/09/22 12:53:28;;;;;;;;;;;;;;;;;;5014947;28;19909;-73
2022/09/22 12:55:54;;;;;;;;;;;;;;;;;;5014725;28;20384;-74
2022/09/22 12:58:20;;;;;;;;;;;;;;;;;;5015540;28;19913;-73
2022/09/22 13:00:46;;;;;;;;;;;;;;;;;;5014401;28;19982;-69
2022/09/22 13:03:12;;;;;;;;;;;;;;;;;;5015051;28;19963;-75
2022/09/22 13:05:41;;;;;;;;;;;;;;;;;;5014829;28;20289;-77
2022/09/22 13:08:06;;;;;;;;;;;;;;;;;;5015045;28;19952;-79
2022/09/22 13:10:32;;;;;;;;;;;;;;;;;;5014349;28;19909;-76
2022/09/22 13:12:58;;;;;;;;;;;;;;;;;;5015406;28;20346;-78
2022/09/22 13:15:25;;;;;;;;;;;;;;;;;;5014288;28;19920;-78
2022/09/22 13:17:51;;;;;;;;;;;;;;;;;;4981728;28;20080;-76
2022/09/22 13:20:17;;;;;;;;;;;;;;;;;;5012868;28;19909;-72
2022/09/22 13:22:43;;;;;;;;;;;;;;;;;;5013955;28;19916;-73
2022/09/22 13:25:09;;;;;;;;;;;;;;;;;;5003816;28;19910;-73
2022/09/22 13:27:36;;;;;;;;;;;;;;;;;;5014087;28;19909;-80
2022/09/22 13:30:02;;;;;;;;;;;;;;;;;;5014430;28;20006;-73
2022/09/22 13:32:28;;;;;;;;;;;;;;;;;;5013777;28;20381;-74
2022/09/22 13:34:54;;;;;;;;;;;;;;;;;;5012772;28;19918;-77
2022/09/22 13:37:19;;;;;;;;;;;;;;;;;;5012485;28;20374;-74
2022/09/22 13:39:45;;;;;;;;;;;;;;;;;;5012750;28;19956;-70
2022/09/22 13:42:11;;;;;;;;;;;;;;;;;;5012993;28;20346;-69
2022/09/22 13:44:37;;;;;;;;;;;;;;;;;;5014072;28;19906;-75
2022/09/22 13:47:03;;;;;;;;;;;;;;;;;;5015081;28;20239;-73
2022/09/22 13:49:30;;;;;;;;;;;;;;;;;;5014535;28;19910;-71
2022/09/22 13:51:55;;;;;;;;;;;;;;;;;;5013020;28;19964;-75
2022/09/22 13:54:21;;;;;;;;;;;;;;;;;;4996222;28;19913;-80
2022/09/22 13:56:48;;;;;;;;;;;;;;;;;;5010791;28;20293;-68
2022/09/22 13:59:13;;;;;;;;;;;;;;;;;;5008723;28;20281;-76
2022/09/22 14:01:39;;;;;;;;;;;;;;;;;;5014718;28;19912;-75
2022/09/22 14:04:05;;;;;;;;;;;;;;;;;;5014449;28;19905;-75
2022/09/22 14:06:31;;;;;;;;;;;;;;;;;;5014114;28;20384;-75
2022/09/22 14:08:57;;;;;;;;;;;;;;;;;;5013665;28;20003;-74
2022/09/22 14:11:23;;;;;;;;;;;;;;;;;;5013647;28;20285;-75
2022/09/22 14:13:49;;;;;;;;;;;;;;;;;;5014031;28;19910;-73
2022/09/22 14:16:15;;;;;;;;;;;;;;;;;;5013023;28;20003;-74
2022/09/22 14:18:41;;;;;;;;;;;;;;;;;;5013587;28;19909;-78
2022/09/22 14:21:06;;;;;;;;;;;;;;;;;;5012824;28;19964;-82
2022/09/22 14:23:32;;;;;;;;;;;;;;;;;;5013321;28;19948;-72
2022/09/22 14:25:58;;;;;;;;;;;;;;;;;;5014469;28;19911;-75
2022/09/22 14:28:24;;;;;;;;;;;;;;;;;;5014179;28;19909;-75
2022/09/22 14:30:50;;;;;;;;;;;;;;;;;;5014425;28;20250;-73
2022/09/22 14:33:16;;;;;;;;;;;;;;;;;;5013936;28;19912;-74
2022/09/22 14:35:42;;;;;;;;;;;;;;;;;;5013792;28;20385;-74
2022/09/22 14:38:08;;;;;;;;;;;;;;;;;;5014022;28;19905;-73
2022/09/22 14:40:36;;;;;;;;;;;;;;;;;;5014276;28;19912;-74
2022/09/22 14:43:07;;;;;;;;;;;;;;;;;;4996131;28;19905;-73
2022/09/22 14:45:33;;;;;;;;;;;;;;;;;;5013387;28;19916;-74
2022/09/22 14:47:59;;;;;;;;;;;;;;;;;;4996034;28;20289;-73
2022/09/22 14:50:25;;;;;;;;;;;;;;;;;;5014239;28;19910;-73
2022/09/22 14:52:51;;;;;;;;;;;;;;;;;;5013776;28;19909;-73
2022/09/22 14:55:17;;;;;;;;;;;;;;;;;;5012855;28;20492;-72
2022/09/22 14:57:43;;;;;;;;;;;;;;;;;;5013229;28;20346;-74
2022/09/22 15:02:54;;;;;;;;;;;;;;;;;;5013132;28;19917;-74
2022/09/22 15:05:21;;;;;;;;;;;;;;;;;;5012960;28;20341;-70
2022/09/22 15:07:47;;;;;;;;;;;;;;;;;;5013968;28;20308;-69
2022/09/22 15:10:13;;;;;;;;;;;;;;;;;;5012724;28;19917;-76
2022/09/22 15:12:39;;;;;;;;;;;;;;;;;;5013442;28;19906;-74
2022/09/22 15:15:05;;;;;;;;;;;;;;;;;;5013101;28;20457;-75
2022/09/22 15:20:17;;;;;;;;;;;;;;;;;;5013168;28;19912;-73
2022/09/22 15:22:45;;;;;;;;;;;;;;;;;;5012344;28;19913;-77
2022/09/22 15:25:11;;;;;;;;;;;;;;;;;;5013310;28;20382;-77
2022/09/22 15:27:38;;;;;;;;;;;;;;;;;;5013818;28;19905;-74
2022/09/22 15:30:03;;;;;;;;;;;;;;;;;;5016682;28;19916;-77
2022/09/22 15:32:31;;;;;;;;;;;;;;;;;;5016419;28;19909;-73
2022/09/22 15:34:59;;;;;;;;;;;;;;;;;;5015823;28;19971;-69
2022/09/22 15:37:25;;;;;;;;;;;;;;;;;;5017115;28;19924;-69
2022/09/22 15:39:51;;;;;;;;;;;;;;;;;;5016706;28;20334;-69
2022/09/22 15:42:17;;;;;;;;;;;;;;;;;;5016944;28;19912;-69
2022/09/22 15:44:43;;;;;;;;;;;;;;;;;;5016585;28;19909;-69
2022/09/22 15:47:09;;;;;;;;;;;;;;;;;;5016551;28;19906;-70
2022/09/22 15:49:35;;;;;;;;;;;;;;;;;;5017070;28;19936;-69
2022/09/22 15:52:03;;;;;;;;;;;;;;;;;;5016795;28;19906;-69
2022/09/22 15:54:29;;;;;;;;;;;;;;;;;;5016406;28;19916;-69
2022/09/22 15:56:55;;;;;;;;;;;;;;;;;;5016688;28;20269;-70
2022/09/22 15:59:25;;;;;;;;;;;;;;;;;;5016359;28;19906;-69
2022/09/22 16:01:51;;;;;;;;;;;;;;;;;;4998723;28;20365;-69
2022/09/22 16:04:18;;;;;;;;;;;;;;;;;;5016841;28;19911;-69
2022/09/22 16:06:44;;;;;;;;;;;;;;;;;;5016199;28;19906;-70
2022/09/22 16:09:10;;;;;;;;;;;;;;;;;;5016203;28;19913;-69
2022/09/22 16:11:36;;;;;;;;;;;;;;;;;;5016711;28;20309;-70
2022/09/22 16:14:05;;;;;;;;;;;;;;;;;;5016083;28;19945;-70
2022/09/22 16:16:31;;;;;;;;;;;;;;;;;;5015355;28;19909;-70
2022/09/22 16:18:57;;;;;;;;;;;;;;;;;;5015379;28;19913;-69
2022/09/22 16:21:24;;;;;;;;;;;;;;;;;;5015932;28;19905;-69
2022/09/22 16:23:52;;;;;;;;;;;;;;;;;;5016175;28;19905;-69
2022/09/22 16:26:18;;;;;;;;;;;;;;;;;;4998223;28;19909;-69
2022/09/22 16:28:44;;;;;;;;;;;;;;;;;;5016052;28;20245;-70
2022/09/22 16:31:10;;;;;;;;;;;;;;;;;;5015887;28;19906;-70
2022/09/22 16:33:35;;;;;;;;;;;;;;;;;;5015689;28;19909;-70